sensor_id;sensor_type;location;lat;lon;timestamp;P1;durP1;ratioP1;P2;durP2;ratioP2
59008;SDS011;44794;42.652;23.318;2022-08-20T00:02:24;11.13;;;8.45;;
59008;SDS011;44794;42.652;23.318;2022-08-20T00:04:49;12.57;;;9.15;;
59008;SDS011;44794;42.652;23.318;2022-08-20T00:07:15;13.30;;;8.50;;
59008;SDS011;44794;42.652;23.318;2022-08-20T00:09:41;12.55;;;9.20;;
59008;SDS011;44794;42.652;23.318;2022-08-20T00:12:07;12.55;;;9.00;;
59008;SDS011;44794;42.652;23.318;2022-08-20T00:14:35;13.55;;;8.63;;
59008;SDS011;44794;42.652;23.318;2022-08-20T00:17:02;13.55;;;8.70;;
59008;SDS011;44794;42.652;23.318;2022-08-20T00:19:28;14.27;;;9.00;;
59008;SDS011;44794;42.652;23.318;2022-08-20T00:21:54;13.23;;;8.98;;
59008;SDS011;44794;42.652;23.318;2022-08-20T00:24:19;12.75;;;9.30;;
59008;SDS011;44794;42.652;23.318;2022-08-20T00:26:45;12.38;;;8.90;;
59008;SDS011;44794;42.652;23.318;2022-08-20T00:29:10;14.88;;;8.82;;
59008;SDS011;44794;42.652;23.318;2022-08-20T00:31:36;13.50;;;8.88;;
59008;SDS011;44794;42.652;23.318;2022-08-20T00:34:01;12.75;;;8.98;;
59008;SDS011;44794;42.652;23.318;2022-08-20T00:36:26;11.60;;;8.55;;
59008;SDS011;44794;42.652;23.318;2022-08-20T00:38:53;12.45;;;9.00;;
59008;SDS011;44794;42.652;23.318;2022-08-20T00:41:20;12.68;;;8.80;;
59008;SDS011;44794;42.652;23.318;2022-08-20T00:43:55;11.43;;;8.77;;
59008;SDS011;44794;42.652;23.318;2022-08-20T00:46:42;11.10;;;8.60;;
59008;SDS011;44794;42.652;23.318;2022-08-20T00:49:11;12.40;;;8.88;;
59008;SDS011;44794;42.652;23.318;2022-08-20T00:51:43;13.00;;;9.32;;
59008;SDS011;44794;42.652;23.318;2022-08-20T00:56:35;11.25;;;8.88;;
59008;SDS011;44794;42.652;23.318;2022-08-20T00:59:03;16.00;;;9.38;;
59008;SDS011;44794;42.652;23.318;2022-08-20T01:01:34;14.43;;;9.10;;
59008;SDS011;44794;42.652;23.318;2022-08-20T01:03:59;12.35;;;8.85;;
59008;SDS011;44794;42.652;23.318;2022-08-20T01:06:25;17.42;;;9.65;;
59008;SDS011;44794;42.652;23.318;2022-08-20T01:08:51;13.98;;;9.13;;
59008;SDS011;44794;42.652;23.318;2022-08-20T01:11:17;12.70;;;9.10;;
59008;SDS011;44794;42.652;23.318;2022-08-20T01:13:46;13.07;;;9.50;;
59008;SDS011;44794;42.652;23.318;2022-08-20T01:16:19;11.55;;;9.13;;
59008;SDS011;44794;42.652;23.318;2022-08-20T01:18:50;10.95;;;9.07;;
59008;SDS011;44794;42.652;23.318;2022-08-20T01:21:18;13.52;;;9.52;;
59008;SDS011;44794;42.652;23.318;2022-08-20T01:26:28;13.63;;;9.60;;
59008;SDS011;44794;42.652;23.318;2022-08-20T01:29:06;10.43;;;9.10;;
59008;SDS011;44794;42.652;23.318;2022-08-20T01:31:37;13.43;;;9.23;;
59008;SDS011;44794;42.652;23.318;2022-08-20T01:34:05;15.00;;;9.32;;
59008;SDS011;44794;42.652;23.318;2022-08-20T01:36:37;13.50;;;9.40;;
59008;SDS011;44794;42.652;23.318;2022-08-20T01:39:06;15.07;;;9.30;;
59008;SDS011;44794;42.652;23.318;2022-08-20T01:44:27;13.85;;;9.32;;
59008;SDS011;44794;42.652;23.318;2022-08-20T01:46:54;11.70;;;9.57;;
59008;SDS011;44794;42.652;23.318;2022-08-20T01:49:27;17.40;;;9.98;;
59008;SDS011;44794;42.652;23.318;2022-08-20T01:51:56;12.80;;;9.68;;
59008;SDS011;44794;42.652;23.318;2022-08-20T01:54:25;11.43;;;9.88;;
59008;SDS011;44794;42.652;23.318;2022-08-20T01:57:13;16.70;;;9.27;;
59008;SDS011;44794;42.652;23.318;2022-08-20T01:59:39;13.73;;;9.05;;
59008;SDS011;44794;42.652;23.318;2022-08-20T02:02:05;12.45;;;9.15;;
59008;SDS011;44794;42.652;23.318;2022-08-20T02:04:31;13.48;;;9.30;;
59008;SDS011;44794;42.652;23.318;2022-08-20T02:06:59;12.07;;;8.82;;
59008;SDS011;44794;42.652;23.318;2022-08-20T02:09:31;14.07;;;9.98;;
59008;SDS011;44794;42.652;23.318;2022-08-20T02:11:59;13.38;;;8.93;;
59008;SDS011;44794;42.652;23.318;2022-08-20T02:14:27;15.07;;;8.93;;
59008;SDS011;44794;42.652;23.318;2022-08-20T02:16:53;13.65;;;9.50;;
59008;SDS011;44794;42.652;23.318;2022-08-20T02:19:20;17.08;;;10.23;;
59008;SDS011;44794;42.652;23.318;2022-08-20T02:21:50;12.55;;;9.95;;
59008;SDS011;44794;42.652;23.318;2022-08-20T02:24:20;13.98;;;9.90;;
59008;SDS011;44794;42.652;23.318;2022-08-20T02:26:45;14.70;;;9.30;;
59008;SDS011;44794;42.652;23.318;2022-08-20T02:29:12;14.15;;;9.68;;
59008;SDS011;44794;42.652;23.318;2022-08-20T02:31:38;12.43;;;9.30;;
59008;SDS011;44794;42.652;23.318;2022-08-20T02:34:06;14.82;;;10.27;;
59008;SDS011;44794;42.652;23.318;2022-08-20T02:36:33;14.48;;;9.43;;
59008;SDS011;44794;42.652;23.318;2022-08-20T02:39:00;16.38;;;10.10;;
59008;SDS011;44794;42.652;23.318;2022-08-20T02:41:28;10.75;;;9.60;;
59008;SDS011;44794;42.652;23.318;2022-08-20T02:43:54;17.27;;;10.20;;
59008;SDS011;44794;42.652;23.318;2022-08-20T02:46:20;13.48;;;9.88;;
59008;SDS011;44794;42.652;23.318;2022-08-20T02:48:45;14.65;;;10.15;;
59008;SDS011;44794;42.652;23.318;2022-08-20T02:51:11;16.27;;;9.85;;
59008;SDS011;44794;42.652;23.318;2022-08-20T02:53:37;14.60;;;10.25;;
59008;SDS011;44794;42.652;23.318;2022-08-20T02:56:05;11.65;;;9.90;;
59008;SDS011;44794;42.652;23.318;2022-08-20T02:58:33;13.68;;;10.07;;
59008;SDS011;44794;42.652;23.318;2022-08-20T03:00:59;13.85;;;9.98;;
59008;SDS011;44794;42.652;23.318;2022-08-20T03:03:26;14.90;;;9.73;;
59008;SDS011;44794;42.652;23.318;2022-08-20T03:05:53;11.38;;;10.00;;
59008;SDS011;44794;42.652;23.318;2022-08-20T03:08:21;14.10;;;9.95;;
59008;SDS011;44794;42.652;23.318;2022-08-20T03:10:47;13.93;;;10.10;;
59008;SDS011;44794;42.652;23.318;2022-08-20T03:13:15;15.88;;;10.05;;
59008;SDS011;44794;42.652;23.318;2022-08-20T03:15:42;14.57;;;10.35;;
59008;SDS011;44794;42.652;23.318;2022-08-20T03:18:13;15.98;;;11.00;;
59008;SDS011;44794;42.652;23.318;2022-08-20T03:20:40;13.52;;;10.27;;
59008;SDS011;44794;42.652;23.318;2022-08-20T03:23:06;15.63;;;10.63;;
59008;SDS011;44794;42.652;23.318;2022-08-20T03:25:32;13.77;;;10.85;;
59008;SDS011;44794;42.652;23.318;2022-08-20T03:27:57;18.90;;;10.80;;
59008;SDS011;44794;42.652;23.318;2022-08-20T03:30:24;13.32;;;10.80;;
59008;SDS011;44794;42.652;23.318;2022-08-20T03:32:51;15.18;;;10.82;;
59008;SDS011;44794;42.652;23.318;2022-08-20T03:35:19;12.38;;;10.23;;
59008;SDS011;44794;42.652;23.318;2022-08-20T03:37:46;17.25;;;10.75;;
59008;SDS011;44794;42.652;23.318;2022-08-20T03:40:12;15.55;;;10.70;;
59008;SDS011;44794;42.652;23.318;2022-08-20T03:42:41;15.88;;;10.88;;
59008;SDS011;44794;42.652;23.318;2022-08-20T03:45:07;15.15;;;10.85;;
59008;SDS011;44794;42.652;23.318;2022-08-20T03:47:36;18.63;;;11.07;;
59008;SDS011;44794;42.652;23.318;2022-08-20T03:50:02;15.63;;;11.20;;
59008;SDS011;44794;42.652;23.318;2022-08-20T03:52:29;20.52;;;11.38;;
59008;SDS011;44794;42.652;23.318;2022-08-20T03:54:55;14.68;;;10.57;;
59008;SDS011;44794;42.652;23.318;2022-08-20T03:57:21;14.07;;;10.85;;
59008;SDS011;44794;42.652;23.318;2022-08-20T03:59:46;16.88;;;11.00;;
59008;SDS011;44794;42.652;23.318;2022-08-20T04:02:12;21.40;;;10.63;;
59008;SDS011;44794;42.652;23.318;2022-08-20T04:04:38;14.88;;;10.80;;
59008;SDS011;44794;42.652;23.318;2022-08-20T04:07:12;16.17;;;10.70;;
59008;SDS011;44794;42.652;23.318;2022-08-20T04:09:39;17.05;;;11.05;;
59008;SDS011;44794;42.652;23.318;2022-08-20T04:12:05;15.25;;;11.20;;
59008;SDS011;44794;42.652;23.318;2022-08-20T04:14:32;14.93;;;10.40;;
59008;SDS011;44794;42.652;23.318;2022-08-20T04:17:03;17.67;;;10.98;;
59008;SDS011;44794;42.652;23.318;2022-08-20T04:19:30;18.17;;;12.43;;
59008;SDS011;44794;42.652;23.318;2022-08-20T04:21:55;20.35;;;11.38;;
59008;SDS011;44794;42.652;23.318;2022-08-20T04:24:21;17.50;;;11.52;;
59008;SDS011;44794;42.652;23.318;2022-08-20T04:26:46;17.23;;;11.10;;
59008;SDS011;44794;42.652;23.318;2022-08-20T04:29:12;17.40;;;10.95;;
59008;SDS011;44794;42.652;23.318;2022-08-20T04:31:37;20.60;;;11.07;;
59008;SDS011;44794;42.652;23.318;2022-08-20T04:34:03;16.65;;;11.30;;
59008;SDS011;44794;42.652;23.318;2022-08-20T04:36:31;14.80;;;10.70;;
59008;SDS011;44794;42.652;23.318;2022-08-20T04:38:57;15.70;;;10.68;;
59008;SDS011;44794;42.652;23.318;2022-08-20T04:41:23;14.55;;;11.07;;
59008;SDS011;44794;42.652;23.318;2022-08-20T04:43:48;15.73;;;11.18;;
59008;SDS011;44794;42.652;23.318;2022-08-20T04:46:14;15.65;;;11.30;;
59008;SDS011;44794;42.652;23.318;2022-08-20T04:48:40;16.52;;;11.85;;
59008;SDS011;44794;42.652;23.318;2022-08-20T04:51:06;17.88;;;11.05;;
59008;SDS011;44794;42.652;23.318;2022-08-20T04:53:32;12.88;;;10.63;;
59008;SDS011;44794;42.652;23.318;2022-08-20T04:55:59;15.35;;;10.70;;
59008;SDS011;44794;42.652;23.318;2022-08-20T04:58:27;17.15;;;10.82;;
59008;SDS011;44794;42.652;23.318;2022-08-20T05:00:56;16.60;;;10.95;;
59008;SDS011;44794;42.652;23.318;2022-08-20T05:03:23;18.45;;;10.95;;
59008;SDS011;44794;42.652;23.318;2022-08-20T05:05:51;15.48;;;10.52;;
59008;SDS011;44794;42.652;23.318;2022-08-20T05:08:17;17.02;;;10.88;;
59008;SDS011;44794;42.652;23.318;2022-08-20T05:10:45;14.05;;;10.70;;
59008;SDS011;44794;42.652;23.318;2022-08-20T05:13:11;17.15;;;10.93;;
59008;SDS011;44794;42.652;23.318;2022-08-20T05:15:36;18.80;;;10.85;;
59008;SDS011;44794;42.652;23.318;2022-08-20T05:18:03;17.05;;;10.70;;
59008;SDS011;44794;42.652;23.318;2022-08-20T05:20:33;18.48;;;11.15;;
59008;SDS011;44794;42.652;23.318;2022-08-20T05:23:04;14.13;;;10.82;;
59008;SDS011;44794;42.652;23.318;2022-08-20T05:25:30;16.02;;;10.70;;
59008;SDS011;44794;42.652;23.318;2022-08-20T05:27:57;17.20;;;10.75;;
59008;SDS011;44794;42.652;23.318;2022-08-20T05:30:24;17.38;;;11.23;;
59008;SDS011;44794;42.652;23.318;2022-08-20T05:32:52;20.58;;;10.70;;
59008;SDS011;44794;42.652;23.318;2022-08-20T05:35:17;15.30;;;11.13;;
59008;SDS011;44794;42.652;23.318;2022-08-20T05:37:43;15.50;;;10.90;;
59008;SDS011;44794;42.652;23.318;2022-08-20T05:40:10;15.00;;;10.93;;
59008;SDS011;44794;42.652;23.318;2022-08-20T05:42:38;14.55;;;10.30;;
59008;SDS011;44794;42.652;23.318;2022-08-20T05:45:05;19.08;;;10.38;;
59008;SDS011;44794;42.652;23.318;2022-08-20T05:47:31;17.17;;;10.15;;
59008;SDS011;44794;42.652;23.318;2022-08-20T05:49:57;16.15;;;10.82;;
59008;SDS011;44794;42.652;23.318;2022-08-20T05:52:23;19.45;;;11.45;;
59008;SDS011;44794;42.652;23.318;2022-08-20T05:54:48;21.23;;;10.40;;
59008;SDS011;44794;42.652;23.318;2022-08-20T05:57:17;18.85;;;11.25;;
59008;SDS011;44794;42.652;23.318;2022-08-20T05:59:43;19.08;;;11.10;;
59008;SDS011;44794;42.652;23.318;2022-08-20T06:02:09;19.10;;;11.30;;
59008;SDS011;44794;42.652;23.318;2022-08-20T06:04:54;21.10;;;10.50;;
59008;SDS011;44794;42.652;23.318;2022-08-20T06:07:20;19.90;;;10.55;;
59008;SDS011;44794;42.652;23.318;2022-08-20T06:09:47;17.48;;;9.32;;
59008;SDS011;44794;42.652;23.318;2022-08-20T06:12:13;17.40;;;9.82;;
59008;SDS011;44794;42.652;23.318;2022-08-20T06:14:38;27.23;;;10.90;;
59008;SDS011;44794;42.652;23.318;2022-08-20T06:17:14;18.88;;;10.65;;
59008;SDS011;44794;42.652;23.318;2022-08-20T06:19:42;16.58;;;10.55;;
59008;SDS011;44794;42.652;23.318;2022-08-20T06:22:09;18.77;;;10.40;;
59008;SDS011;44794;42.652;23.318;2022-08-20T06:24:35;16.38;;;10.32;;
59008;SDS011;44794;42.652;23.318;2022-08-20T06:27:01;16.25;;;10.52;;
59008;SDS011;44794;42.652;23.318;2022-08-20T06:29:29;23.23;;;9.85;;
59008;SDS011;44794;42.652;23.318;2022-08-20T06:31:55;20.33;;;9.77;;
59008;SDS011;44794;42.652;23.318;2022-08-20T06:34:21;14.73;;;10.35;;
59008;SDS011;44794;42.652;23.318;2022-08-20T06:36:48;14.40;;;9.15;;
59008;SDS011;44794;42.652;23.318;2022-08-20T06:39:13;15.27;;;9.55;;
59008;SDS011;44794;42.652;23.318;2022-08-20T06:41:39;15.13;;;9.27;;
59008;SDS011;44794;42.652;23.318;2022-08-20T06:44:05;17.35;;;9.75;;
59008;SDS011;44794;42.652;23.318;2022-08-20T06:46:32;14.38;;;9.70;;
59008;SDS011;44794;42.652;23.318;2022-08-20T06:49:02;17.65;;;9.50;;
59008;SDS011;44794;42.652;23.318;2022-08-20T06:51:29;13.77;;;9.68;;
59008;SDS011;44794;42.652;23.318;2022-08-20T06:53:55;16.55;;;10.02;;
59008;SDS011;44794;42.652;23.318;2022-08-20T06:56:21;14.50;;;10.77;;
59008;SDS011;44794;42.652;23.318;2022-08-20T06:58:47;13.90;;;10.43;;
59008;SDS011;44794;42.652;23.318;2022-08-20T07:01:13;16.13;;;10.55;;
59008;SDS011;44794;42.652;23.318;2022-08-20T07:03:41;19.35;;;10.88;;
59008;SDS011;44794;42.652;23.318;2022-08-20T07:06:07;21.30;;;10.45;;
59008;SDS011;44794;42.652;23.318;2022-08-20T07:08:33;15.85;;;11.00;;
59008;SDS011;44794;42.652;23.318;2022-08-20T07:11:00;13.00;;;10.35;;
59008;SDS011;44794;42.652;23.318;2022-08-20T07:13:26;12.80;;;10.07;;
59008;SDS011;44794;42.652;23.318;2022-08-20T07:15:52;12.45;;;11.15;;
59008;SDS011;44794;42.652;23.318;2022-08-20T07:18:18;19.20;;;10.00;;
59008;SDS011;44794;42.652;23.318;2022-08-20T07:20:43;22.13;;;10.77;;
59008;SDS011;44794;42.652;23.318;2022-08-20T07:23:09;17.52;;;10.32;;
59008;SDS011;44794;42.652;23.318;2022-08-20T07:25:36;12.80;;;10.13;;
59008;SDS011;44794;42.652;23.318;2022-08-20T07:28:03;15.15;;;10.63;;
59008;SDS011;44794;42.652;23.318;2022-08-20T07:33:17;17.77;;;10.40;;
59008;SDS011;44794;42.652;23.318;2022-08-20T07:35:42;18.10;;;11.02;;
59008;SDS011;44794;42.652;23.318;2022-08-20T07:38:15;17.17;;;10.77;;
59008;SDS011;44794;42.652;23.318;2022-08-20T07:40:47;18.35;;;10.80;;
59008;SDS011;44794;42.652;23.318;2022-08-20T07:43:13;18.33;;;10.75;;
59008;SDS011;44794;42.652;23.318;2022-08-20T07:45:40;11.98;;;10.27;;
59008;SDS011;44794;42.652;23.318;2022-08-20T07:48:07;17.33;;;11.43;;
59008;SDS011;44794;42.652;23.318;2022-08-20T07:53:02;17.63;;;10.52;;
59008;SDS011;44794;42.652;23.318;2022-08-20T07:55:28;28.02;;;11.63;;
59008;SDS011;44794;42.652;23.318;2022-08-20T07:57:54;18.33;;;10.63;;
59008;SDS011;44794;42.652;23.318;2022-08-20T08:00:23;16.75;;;11.18;;
59008;SDS011;44794;42.652;23.318;2022-08-20T08:02:50;13.43;;;10.40;;
59008;SDS011;44794;42.652;23.318;2022-08-20T08:05:16;14.98;;;10.20;;
59008;SDS011;44794;42.652;23.318;2022-08-20T08:07:42;50.67;;;11.35;;
59008;SDS011;44794;42.652;23.318;2022-08-20T08:10:08;13.25;;;10.05;;
59008;SDS011;44794;42.652;23.318;2022-08-20T08:12:40;15.15;;;10.77;;
59008;SDS011;44794;42.652;23.318;2022-08-20T08:15:09;15.25;;;10.68;;
59008;SDS011;44794;42.652;23.318;2022-08-20T08:17:39;20.90;;;11.38;;
59008;SDS011;44794;42.652;23.318;2022-08-20T08:20:05;12.88;;;10.73;;
59008;SDS011;44794;42.652;23.318;2022-08-20T08:22:33;13.98;;;10.90;;
59008;SDS011;44794;42.652;23.318;2022-08-20T08:24:58;11.25;;;10.15;;
59008;SDS011;44794;42.652;23.318;2022-08-20T08:27:27;12.90;;;10.85;;
59008;SDS011;44794;42.652;23.318;2022-08-20T08:29:57;16.23;;;10.57;;
59008;SDS011;44794;42.652;23.318;2022-08-20T08:32:24;14.23;;;11.00;;
59008;SDS011;44794;42.652;23.318;2022-08-20T08:34:49;13.85;;;10.45;;
59008;SDS011;44794;42.652;23.318;2022-08-20T08:37:15;15.55;;;10.57;;
59008;SDS011;44794;42.652;23.318;2022-08-20T08:39:40;15.93;;;10.60;;
59008;SDS011;44794;42.652;23.318;2022-08-20T08:42:15;12.85;;;10.88;;
59008;SDS011;44794;42.652;23.318;2022-08-20T08:44:51;14.15;;;11.07;;
59008;SDS011;44794;42.652;23.318;2022-08-20T08:47:20;15.25;;;11.15;;
59008;SDS011;44794;42.652;23.318;2022-08-20T08:49:51;12.77;;;11.18;;
59008;SDS011;44794;42.652;23.318;2022-08-20T08:52:18;12.98;;;11.10;;
59008;SDS011;44794;42.652;23.318;2022-08-20T08:57:14;17.20;;;10.90;;
59008;SDS011;44794;42.652;23.318;2022-08-20T08:59:40;15.60;;;10.98;;
59008;SDS011;44794;42.652;23.318;2022-08-20T09:02:06;16.70;;;10.90;;
59008;SDS011;44794;42.652;23.318;2022-08-20T09:04:34;15.40;;;10.55;;
59008;SDS011;44794;42.652;23.318;2022-08-20T09:09:29;13.20;;;10.80;;
59008;SDS011;44794;42.652;23.318;2022-08-20T09:12:04;19.08;;;11.20;;
59008;SDS011;44794;42.652;23.318;2022-08-20T09:14:34;19.65;;;11.43;;
59008;SDS011;44794;42.652;23.318;2022-08-20T09:17:00;12.52;;;11.10;;
59008;SDS011;44794;42.652;23.318;2022-08-20T09:19:26;19.88;;;11.38;;
59008;SDS011;44794;42.652;23.318;2022-08-20T09:21:51;11.70;;;10.02;;
59008;SDS011;44794;42.652;23.318;2022-08-20T09:24:17;12.75;;;10.68;;
59008;SDS011;44794;42.652;23.318;2022-08-20T09:26:43;13.43;;;10.93;;
59008;SDS011;44794;42.652;23.318;2022-08-20T09:29:08;15.93;;;11.07;;
59008;SDS011;44794;42.652;23.318;2022-08-20T09:31:34;13.65;;;10.38;;
59008;SDS011;44794;42.652;23.318;2022-08-20T09:34:00;12.48;;;10.07;;
59008;SDS011;44794;42.652;23.318;2022-08-20T09:36:25;14.95;;;11.57;;
59008;SDS011;44794;42.652;23.318;2022-08-20T09:38:51;14.63;;;10.82;;
59008;SDS011;44794;42.652;23.318;2022-08-20T09:41:17;12.77;;;10.13;;
59008;SDS011;44794;42.652;23.318;2022-08-20T09:43:43;13.77;;;10.77;;
59008;SDS011;44794;42.652;23.318;2022-08-20T09:46:08;12.98;;;11.00;;
59008;SDS011;44794;42.652;23.318;2022-08-20T09:48:34;14.23;;;10.20;;
59008;SDS011;44794;42.652;23.318;2022-08-20T09:50:59;12.70;;;10.35;;
59008;SDS011;44794;42.652;23.318;2022-08-20T09:53:25;13.30;;;10.13;;
59008;SDS011;44794;42.652;23.318;2022-08-20T09:55:51;11.52;;;9.70;;
59008;SDS011;44794;42.652;23.318;2022-08-20T09:58:29;15.38;;;9.95;;
59008;SDS011;44794;42.652;23.318;2022-08-20T10:01:10;16.40;;;9.95;;
59008;SDS011;44794;42.652;23.318;2022-08-20T10:03:39;11.77;;;9.75;;
59008;SDS011;44794;42.652;23.318;2022-08-20T10:06:05;10.80;;;9.68;;
59008;SDS011;44794;42.652;23.318;2022-08-20T10:08:31;15.30;;;9.45;;
59008;SDS011;44794;42.652;23.318;2022-08-20T10:10:56;15.10;;;9.95;;
59008;SDS011;44794;42.652;23.318;2022-08-20T10:13:22;11.10;;;9.90;;
59008;SDS011;44794;42.652;23.318;2022-08-20T10:15:48;11.98;;;10.07;;
59008;SDS011;44794;42.652;23.318;2022-08-20T10:18:13;11.43;;;10.32;;
59008;SDS011;44794;42.652;23.318;2022-08-20T10:20:39;11.90;;;10.40;;
59008;SDS011;44794;42.652;23.318;2022-08-20T10:23:05;12.18;;;9.88;;
59008;SDS011;44794;42.652;23.318;2022-08-20T10:25:30;11.85;;;9.25;;
59008;SDS011;44794;42.652;23.318;2022-08-20T10:27:56;10.70;;;8.68;;
59008;SDS011;44794;42.652;23.318;2022-08-20T10:30:22;12.35;;;9.35;;
59008;SDS011;44794;42.652;23.318;2022-08-20T10:32:47;12.52;;;9.25;;
59008;SDS011;44794;42.652;23.318;2022-08-20T10:35:13;13.10;;;10.00;;
59008;SDS011;44794;42.652;23.318;2022-08-20T10:37:38;11.70;;;10.50;;
59008;SDS011;44794;42.652;23.318;2022-08-20T10:40:04;11.75;;;10.07;;
59008;SDS011;44794;42.652;23.318;2022-08-20T10:42:30;11.65;;;9.73;;
59008;SDS011;44794;42.652;23.318;2022-08-20T10:44:56;12.90;;;10.25;;
59008;SDS011;44794;42.652;23.318;2022-08-20T10:47:22;13.25;;;10.65;;
59008;SDS011;44794;42.652;23.318;2022-08-20T10:49:50;16.98;;;10.07;;
59008;SDS011;44794;42.652;23.318;2022-08-20T10:52:18;16.27;;;11.30;;
59008;SDS011;44794;42.652;23.318;2022-08-20T10:54:44;15.20;;;10.10;;
59008;SDS011;44794;42.652;23.318;2022-08-20T10:57:15;12.43;;;9.98;;
59008;SDS011;44794;42.652;23.318;2022-08-20T10:59:43;13.27;;;9.95;;
59008;SDS011;44794;42.652;23.318;2022-08-20T11:02:10;11.32;;;10.20;;
59008;SDS011;44794;42.652;23.318;2022-08-20T11:04:37;11.10;;;9.95;;
59008;SDS011;44794;42.652;23.318;2022-08-20T11:09:45;13.32;;;10.52;;
59008;SDS011;44794;42.652;23.318;2022-08-20T11:12:11;14.18;;;10.68;;
59008;SDS011;44794;42.652;23.318;2022-08-20T11:14:37;14.20;;;10.13;;
59008;SDS011;44794;42.652;23.318;2022-08-20T11:17:03;14.70;;;10.82;;
59008;SDS011;44794;42.652;23.318;2022-08-20T11:19:29;14.80;;;10.25;;
59008;SDS011;44794;42.652;23.318;2022-08-20T11:21:55;17.30;;;10.18;;
59008;SDS011;44794;42.652;23.318;2022-08-20T11:24:20;14.82;;;10.45;;
59008;SDS011;44794;42.652;23.318;2022-08-20T11:26:46;11.30;;;10.20;;
59008;SDS011;44794;42.652;23.318;2022-08-20T11:29:14;11.52;;;10.35;;
59008;SDS011;44794;42.652;23.318;2022-08-20T11:31:40;11.93;;;10.73;;
59008;SDS011;44794;42.652;23.318;2022-08-20T11:34:05;15.15;;;10.80;;
59008;SDS011;44794;42.652;23.318;2022-08-20T11:36:31;20.27;;;11.20;;
59008;SDS011;44794;42.652;23.318;2022-08-20T11:38:57;13.02;;;10.70;;
59008;SDS011;44794;42.652;23.318;2022-08-20T11:41:22;12.65;;;11.00;;
59008;SDS011;44794;42.652;23.318;2022-08-20T11:43:48;17.08;;;11.63;;
59008;SDS011;44794;42.652;23.318;2022-08-20T11:46:14;12.70;;;10.15;;
59008;SDS011;44794;42.652;23.318;2022-08-20T11:48:39;15.68;;;10.43;;
59008;SDS011;44794;42.652;23.318;2022-08-20T11:51:05;11.85;;;10.52;;
59008;SDS011;44794;42.652;23.318;2022-08-20T11:53:30;12.68;;;10.70;;
59008;SDS011;44794;42.652;23.318;2022-08-20T11:55:56;12.82;;;9.98;;
59008;SDS011;44794;42.652;23.318;2022-08-20T11:58:21;13.65;;;10.52;;
59008;SDS011;44794;42.652;23.318;2022-08-20T12:00:47;15.98;;;10.48;;
59008;SDS011;44794;42.652;23.318;2022-08-20T12:03:12;14.73;;;10.88;;
59008;SDS011;44794;42.652;23.318;2022-08-20T12:05:40;15.32;;;10.57;;
59008;SDS011;44794;42.652;23.318;2022-08-20T12:08:07;12.00;;;10.70;;
59008;SDS011;44794;42.652;23.318;2022-08-20T12:10:33;11.73;;;10.13;;
59008;SDS011;44794;42.652;23.318;2022-08-20T12:12:59;13.40;;;10.32;;
59008;SDS011;44794;42.652;23.318;2022-08-20T12:15:25;18.23;;;10.73;;
59008;SDS011;44794;42.652;23.318;2022-08-20T12:17:51;11.88;;;9.95;;
59008;SDS011;44794;42.652;23.318;2022-08-20T12:20:17;13.05;;;10.05;;
59008;SDS011;44794;42.652;23.318;2022-08-20T12:22:42;15.23;;;10.60;;
59008;SDS011;44794;42.652;23.318;2022-08-20T12:25:08;41.80;;;12.90;;
59008;SDS011;44794;42.652;23.318;2022-08-20T12:27:35;49.47;;;15.88;;
59008;SDS011;44794;42.652;23.318;2022-08-20T12:30:03;44.47;;;17.95;;
59008;SDS011;44794;42.652;23.318;2022-08-20T12:32:34;43.05;;;20.27;;
59008;SDS011;44794;42.652;23.318;2022-08-20T12:35:00;42.10;;;21.45;;
59008;SDS011;44794;42.652;23.318;2022-08-20T12:37:28;37.00;;;20.95;;
59008;SDS011;44794;42.652;23.318;2022-08-20T12:39:55;40.38;;;21.80;;
59008;SDS011;44794;42.652;23.318;2022-08-20T12:42:21;37.15;;;21.95;;
59008;SDS011;44794;42.652;23.318;2022-08-20T12:44:48;45.55;;;23.67;;
59008;SDS011;44794;42.652;23.318;2022-08-20T12:47:14;47.83;;;23.05;;
59008;SDS011;44794;42.652;23.318;2022-08-20T12:49:45;50.47;;;25.75;;
59008;SDS011;44794;42.652;23.318;2022-08-20T12:52:16;43.45;;;25.17;;
59008;SDS011;44794;42.652;23.318;2022-08-20T12:54:43;49.05;;;23.75;;
59008;SDS011;44794;42.652;23.318;2022-08-20T12:57:29;52.17;;;26.77;;
59008;SDS011;44794;42.652;23.318;2022-08-20T13:00:03;50.80;;;28.90;;
59008;SDS011;44794;42.652;23.318;2022-08-20T13:02:34;44.97;;;28.38;;
59008;SDS011;44794;42.652;23.318;2022-08-20T13:04:59;42.33;;;26.90;;
59008;SDS011;44794;42.652;23.318;2022-08-20T13:07:25;51.90;;;30.35;;
59008;SDS011;44794;42.652;23.318;2022-08-20T13:09:51;46.85;;;30.38;;
59008;SDS011;44794;42.652;23.318;2022-08-20T13:12:16;43.55;;;28.52;;
59008;SDS011;44794;42.652;23.318;2022-08-20T13:14:42;37.88;;;25.50;;
59008;SDS011;44794;42.652;23.318;2022-08-20T13:17:07;38.10;;;24.75;;
59008;SDS011;44794;42.652;23.318;2022-08-20T13:19:34;36.08;;;23.88;;
59008;SDS011;44794;42.652;23.318;2022-08-20T13:22:01;34.90;;;23.48;;
59008;SDS011;44794;42.652;23.318;2022-08-20T13:24:27;38.72;;;23.90;;
59008;SDS011;44794;42.652;23.318;2022-08-20T13:26:53;30.48;;;21.40;;
59008;SDS011;44794;42.652;23.318;2022-08-20T13:29:18;36.33;;;23.30;;
59008;SDS011;44794;42.652;23.318;2022-08-20T13:31:44;38.58;;;26.52;;
59008;SDS011;44794;42.652;23.318;2022-08-20T13:34:10;38.90;;;26.30;;
59008;SDS011;44794;42.652;23.318;2022-08-20T13:36:36;37.90;;;25.73;;
59008;SDS011;44794;42.652;23.318;2022-08-20T13:39:03;37.50;;;25.60;;
59008;SDS011;44794;42.652;23.318;2022-08-20T13:41:30;31.38;;;24.15;;
59008;SDS011;44794;42.652;23.318;2022-08-20T13:43:55;31.20;;;24.77;;
59008;SDS011;44794;42.652;23.318;2022-08-20T13:46:21;34.33;;;26.02;;
59008;SDS011;44794;42.652;23.318;2022-08-20T13:48:46;27.77;;;22.95;;
59008;SDS011;44794;42.652;23.318;2022-08-20T13:51:11;25.95;;;22.95;;
59008;SDS011;44794;42.652;23.318;2022-08-20T13:53:37;28.92;;;24.15;;
59008;SDS011;44794;42.652;23.318;2022-08-20T13:56:03;28.90;;;24.48;;
59008;SDS011;44794;42.652;23.318;2022-08-20T13:58:28;32.75;;;23.10;;
59008;SDS011;44794;42.652;23.318;2022-08-20T14:00:54;21.85;;;16.70;;
59008;SDS011;44794;42.652;23.318;2022-08-20T14:03:19;29.30;;;20.02;;
59008;SDS011;44794;42.652;23.318;2022-08-20T14:05:45;33.55;;;22.55;;
59008;SDS011;44794;42.652;23.318;2022-08-20T14:08:14;27.52;;;22.90;;
59008;SDS011;44794;42.652;23.318;2022-08-20T14:10:45;30.23;;;23.13;;
59008;SDS011;44794;42.652;23.318;2022-08-20T14:13:14;29.58;;;23.45;;
59008;SDS011;44794;42.652;23.318;2022-08-20T14:15:43;27.90;;;24.02;;
59008;SDS011;44794;42.652;23.318;2022-08-20T14:18:09;37.70;;;26.85;;
59008;SDS011;44794;42.652;23.318;2022-08-20T14:20:36;36.03;;;28.27;;
59008;SDS011;44794;42.652;23.318;2022-08-20T14:23:01;31.73;;;25.75;;
59008;SDS011;44794;42.652;23.318;2022-08-20T14:25:27;32.00;;;27.88;;
59008;SDS011;44794;42.652;23.318;2022-08-20T14:27:54;31.88;;;26.50;;
59008;SDS011;44794;42.652;23.318;2022-08-20T14:30:21;37.22;;;30.48;;
59008;SDS011;44794;42.652;23.318;2022-08-20T14:32:52;36.47;;;29.98;;
59008;SDS011;44794;42.652;23.318;2022-08-20T14:35:18;37.22;;;30.17;;